AFR1641 EHAM-LFPG
Flight info
| Callsign | AFR1641 |
|---|---|
| Flight time | 0h 44m |
| Altitude | 26000 |
| Route | WOODY N872 DENOX MOPIL |
| Aircraft | A320/M-SDE3FGHIRWY/LB1 |
Departure
| Time | 2026-05-06 11:18 |
|---|---|
| Airport | Amsterdam Airport Schiphol (EHAM) |
Arrival
| Time | 2026-05-06 12:03 |
|---|---|
| Airport | Charles de Gaulle International Airport (LFPG) |
| Time | Latitude | Longitude | Altitude | Speed | Heading |
|---|---|---|---|---|---|
| 2026-05-06 10:47 | 52.30508 | 4.76556 | -1 ft | 0 kts | 59° |
| 2026-05-06 11:06 | 52.30499 | 4.76533 | -1 ft | 3 kts | 58° |
| 2026-05-06 11:07 | 52.30488 | 4.76500 | -1 ft | 3 kts | 71° |
| 2026-05-06 11:07 | 52.30485 | 4.76471 | -1 ft | 3 kts | 128° |
| 2026-05-06 11:07 | 52.30488 | 4.76465 | -1 ft | 0 kts | 136° |
| 2026-05-06 11:10 | 52.30469 | 4.76475 | -1 ft | 6 kts | 161° |
| 2026-05-06 11:10 | 52.30433 | 4.76510 | -1 ft | 5 kts | 146° |
| 2026-05-06 11:10 | 52.30378 | 4.76567 | -1 ft | 12 kts | 148° |
| 2026-05-06 11:10 | 52.30312 | 4.76560 | -1 ft | 9 kts | 221° |
| 2026-05-06 11:11 | 52.30277 | 4.76477 | -1 ft | 10 kts | 239° |
| 2026-05-06 11:11 | 52.30223 | 4.76333 | -1 ft | 16 kts | 238° |
| 2026-05-06 11:11 | 52.30163 | 4.76176 | -1 ft | 18 kts | 238° |
| 2026-05-06 11:11 | 52.30098 | 4.76007 | -1 ft | 17 kts | 238° |
| 2026-05-06 11:12 | 52.30029 | 4.75830 | -1 ft | 19 kts | 237° |
| 2026-05-06 11:12 | 52.29950 | 4.75622 | -1 ft | 24 kts | 238° |
| 2026-05-06 11:12 | 52.29866 | 4.75404 | -1 ft | 17 kts | 237° |
| 2026-05-06 11:12 | 52.29831 | 4.75247 | -1 ft | 13 kts | 274° |
| 2026-05-06 11:13 | 52.29877 | 4.75128 | -1 ft | 13 kts | 311° |
| 2026-05-06 11:13 | 52.29947 | 4.75000 | -1 ft | 17 kts | 311° |
| 2026-05-06 11:13 | 52.30035 | 4.74836 | -1 ft | 20 kts | 311° |
| 2026-05-06 11:13 | 52.30124 | 4.74674 | 8 ft | 17 kts | 311° |
| 2026-05-06 11:14 | 52.30207 | 4.74519 | 10 ft | 19 kts | 311° |
| 2026-05-06 11:14 | 52.30299 | 4.74347 | 6 ft | 22 kts | 310° |
| 2026-05-06 11:14 | 52.30374 | 4.74170 | -1 ft | 16 kts | 277° |
| 2026-05-06 11:14 | 52.30318 | 4.74031 | -1 ft | 14 kts | 217° |
| 2026-05-06 11:15 | 52.30242 | 4.73940 | -1 ft | 13 kts | 216° |
| 2026-05-06 11:15 | 52.30212 | 4.73902 | -1 ft | 0 kts | 218° |
| 2026-05-06 11:16 | 52.30211 | 4.73901 | -1 ft | 1 kts | 218° |
| 2026-05-06 11:16 | 52.30192 | 4.73863 | -2 ft | 8 kts | 244° |
| 2026-05-06 11:16 | 52.30198 | 4.73771 | -2 ft | 8 kts | 292° |
| 2026-05-06 11:16 | 52.30245 | 4.73741 | -3 ft | 9 kts | 3° |
| 2026-05-06 11:17 | 52.30254 | 4.73742 | -4 ft | 0 kts | 4° |
| 2026-05-06 11:17 | 52.30294 | 4.73747 | -4 ft | 30 kts | 4° |
| 2026-05-06 11:18 | 52.30738 | 4.73787 | -1 ft | 95 kts | 3° |
| 2026-05-06 11:18 | 52.31580 | 4.73865 | -2 ft | 145 kts | 3° |
| 2026-05-06 11:18 | 52.32642 | 4.73956 | 464 ft | 155 kts | 6° |
| 2026-05-06 11:18 | 52.33693 | 4.74395 | 1174 ft | 158 kts | 24° |
| 2026-05-06 11:19 | 52.34719 | 4.75078 | 1868 ft | 159 kts | 22° |
| 2026-05-06 11:19 | 52.35786 | 4.75722 | 2375 ft | 172 kts | 21° |
| 2026-05-06 11:19 | 52.36894 | 4.76705 | 2612 ft | 194 kts | 46° |
| 2026-05-06 11:19 | 52.37462 | 4.78741 | 2977 ft | 214 kts | 84° |
| 2026-05-06 11:20 | 52.37204 | 4.81196 | 3676 ft | 224 kts | 106° |
| 2026-05-06 11:20 | 52.36370 | 4.83397 | 4455 ft | 235 kts | 132° |
| 2026-05-06 11:20 | 52.34929 | 4.84822 | 5018 ft | 258 kts | 162° |
| 2026-05-06 11:20 | 52.33066 | 4.85036 | 5509 ft | 278 kts | 180° |
| 2026-05-06 11:21 | 52.31112 | 4.84969 | 6319 ft | 283 kts | 180° |
| 2026-05-06 11:21 | 52.29124 | 4.84899 | 7079 ft | 289 kts | 180° |
| 2026-05-06 11:21 | 52.27099 | 4.84836 | 7850 ft | 293 kts | 180° |
| 2026-05-06 11:21 | 52.25749 | 4.84799 | 8445 ft | 293 kts | 180° |
| 2026-05-06 11:22 | 52.23699 | 4.84749 | 9336 ft | 294 kts | 181° |
| 2026-05-06 11:22 | 52.21636 | 4.84705 | 10113 ft | 298 kts | 181° |
| 2026-05-06 11:22 | 52.19492 | 4.84660 | 10431 ft | 320 kts | 181° |
| 2026-05-06 11:22 | 52.17194 | 4.84606 | 10721 ft | 338 kts | 181° |
| 2026-05-06 11:23 | 52.14814 | 4.84550 | 11316 ft | 346 kts | 181° |
| 2026-05-06 11:23 | 52.12400 | 4.84497 | 12039 ft | 349 kts | 181° |
| 2026-05-06 11:23 | 52.09957 | 4.84448 | 12749 ft | 352 kts | 182° |
| 2026-05-06 11:23 | 52.07492 | 4.84402 | 13482 ft | 355 kts | 181° |
| 2026-05-06 11:24 | 52.05014 | 4.84356 | 14135 ft | 357 kts | 182° |
| 2026-05-06 11:24 | 52.02541 | 4.83937 | 14751 ft | 359 kts | 192° |
| 2026-05-06 11:24 | 52.00148 | 4.82772 | 15367 ft | 360 kts | 204° |
| 2026-05-06 11:24 | 51.97876 | 4.81021 | 15991 ft | 363 kts | 207° |
| 2026-05-06 11:25 | 51.95598 | 4.79217 | 16590 ft | 366 kts | 206° |
| 2026-05-06 11:25 | 51.93296 | 4.77409 | 17177 ft | 370 kts | 206° |
| 2026-05-06 11:25 | 51.90972 | 4.75590 | 17762 ft | 373 kts | 206° |
| 2026-05-06 11:25 | 51.88627 | 4.73759 | 18317 ft | 376 kts | 206° |
| 2026-05-06 11:26 | 51.86261 | 4.71911 | 18836 ft | 378 kts | 206° |
| 2026-05-06 11:26 | 51.83889 | 4.70063 | 19355 ft | 380 kts | 206° |
| 2026-05-06 11:26 | 51.81501 | 4.68209 | 19898 ft | 381 kts | 206° |
| 2026-05-06 11:26 | 51.79104 | 4.66346 | 20400 ft | 383 kts | 207° |
| 2026-05-06 11:27 | 51.76732 | 4.64505 | 20896 ft | 385 kts | 207° |
| 2026-05-06 11:27 | 51.74314 | 4.62628 | 21368 ft | 387 kts | 206° |
| 2026-05-06 11:27 | 51.71880 | 4.60741 | 21878 ft | 389 kts | 207° |
| 2026-05-06 11:27 | 51.69441 | 4.58848 | 22390 ft | 390 kts | 207° |
| 2026-05-06 11:28 | 51.66992 | 4.56949 | 22800 ft | 392 kts | 206° |
| 2026-05-06 11:28 | 51.64545 | 4.55055 | 22876 ft | 386 kts | 206° |
| 2026-05-06 11:28 | 51.62111 | 4.53178 | 22885 ft | 394 kts | 206° |
| 2026-05-06 11:28 | 51.59588 | 4.51233 | 22886 ft | 408 kts | 206° |
| 2026-05-06 11:29 | 51.56991 | 4.49235 | 22883 ft | 420 kts | 206° |
| 2026-05-06 11:29 | 51.54333 | 4.47194 | 22892 ft | 425 kts | 206° |
| 2026-05-06 11:29 | 51.51660 | 4.45140 | 22893 ft | 425 kts | 206° |
| 2026-05-06 11:29 | 51.48979 | 4.43082 | 22890 ft | 426 kts | 206° |
| 2026-05-06 11:30 | 51.46333 | 4.41052 | 22904 ft | 428 kts | 206° |
| 2026-05-06 11:30 | 51.43640 | 4.38991 | 22899 ft | 428 kts | 206° |
| 2026-05-06 11:30 | 51.40959 | 4.36944 | 22888 ft | 427 kts | 206° |
| 2026-05-06 11:30 | 51.38272 | 4.34895 | 22885 ft | 428 kts | 206° |
| 2026-05-06 11:31 | 51.35581 | 4.32849 | 22886 ft | 428 kts | 205° |
| 2026-05-06 11:31 | 51.32901 | 4.30817 | 22888 ft | 426 kts | 206° |
| 2026-05-06 11:31 | 51.30214 | 4.28785 | 22880 ft | 426 kts | 206° |
| 2026-05-06 11:31 | 51.27535 | 4.26755 | 22873 ft | 426 kts | 205° |
| 2026-05-06 11:32 | 51.24859 | 4.24726 | 22871 ft | 426 kts | 206° |
| 2026-05-06 11:32 | 51.22182 | 4.22698 | 22868 ft | 426 kts | 206° |
| 2026-05-06 11:32 | 51.19499 | 4.20663 | 22866 ft | 427 kts | 206° |
| 2026-05-06 11:32 | 51.16813 | 4.18651 | 22867 ft | 427 kts | 204° |
| 2026-05-06 11:33 | 51.14018 | 4.17022 | 22866 ft | 428 kts | 200° |
| 2026-05-06 11:33 | 51.11199 | 4.15479 | 22869 ft | 428 kts | 199° |
| 2026-05-06 11:33 | 51.08379 | 4.13932 | 22871 ft | 429 kts | 200° |
| 2026-05-06 11:33 | 51.05558 | 4.12384 | 22878 ft | 429 kts | 200° |
| 2026-05-06 11:34 | 51.02737 | 4.10838 | 22884 ft | 429 kts | 199° |
| 2026-05-06 11:34 | 50.99915 | 4.09292 | 22879 ft | 429 kts | 200° |
| 2026-05-06 11:34 | 50.97093 | 4.07750 | 22883 ft | 429 kts | 200° |
| 2026-05-06 11:34 | 50.94308 | 4.06232 | 22892 ft | 429 kts | 200° |
| 2026-05-06 11:35 | 50.91446 | 4.04678 | 22885 ft | 429 kts | 199° |
| 2026-05-06 11:35 | 50.88554 | 4.03525 | 22884 ft | 430 kts | 190° |
| 2026-05-06 11:35 | 50.85608 | 4.03129 | 22884 ft | 431 kts | 181° |
| 2026-05-06 11:35 | 50.82606 | 4.03382 | 22890 ft | 432 kts | 176° |
| 2026-05-06 11:36 | 50.79612 | 4.03722 | 22881 ft | 432 kts | 177° |
| 2026-05-06 11:36 | 50.76611 | 4.04056 | 22874 ft | 432 kts | 176° |
| 2026-05-06 11:36 | 50.73603 | 4.04385 | 22876 ft | 433 kts | 177° |
| 2026-05-06 11:36 | 50.70602 | 4.04711 | 22873 ft | 433 kts | 177° |
| 2026-05-06 11:37 | 50.67591 | 4.05034 | 22875 ft | 433 kts | 177° |
| 2026-05-06 11:37 | 50.64579 | 4.05360 | 22876 ft | 433 kts | 176° |
| 2026-05-06 11:37 | 50.61571 | 4.05686 | 22871 ft | 433 kts | 176° |
| 2026-05-06 11:37 | 50.58563 | 4.06013 | 22874 ft | 433 kts | 177° |
| 2026-05-06 11:38 | 50.55556 | 4.06344 | 22872 ft | 434 kts | 176° |
| 2026-05-06 11:38 | 50.52542 | 4.06684 | 22872 ft | 434 kts | 176° |
| 2026-05-06 11:38 | 50.49527 | 4.07021 | 22871 ft | 434 kts | 176° |
| 2026-05-06 11:38 | 50.46501 | 4.07352 | 22870 ft | 435 kts | 176° |
| 2026-05-06 11:39 | 50.43486 | 4.07677 | 22868 ft | 435 kts | 176° |
| 2026-05-06 11:39 | 50.40469 | 4.08005 | 22870 ft | 435 kts | 176° |
| 2026-05-06 11:39 | 50.37444 | 4.08332 | 22871 ft | 435 kts | 176° |
| 2026-05-06 11:39 | 50.34422 | 4.08660 | 22869 ft | 435 kts | 176° |
| 2026-05-06 11:40 | 50.31442 | 4.08986 | 22867 ft | 435 kts | 175° |
| 2026-05-06 11:40 | 50.28379 | 4.09317 | 22869 ft | 435 kts | 176° |
| 2026-05-06 11:40 | 50.25388 | 4.09637 | 22867 ft | 436 kts | 175° |
| 2026-05-06 11:40 | 50.22368 | 4.09957 | 22864 ft | 436 kts | 175° |
| 2026-05-06 11:41 | 50.19327 | 4.10281 | 22865 ft | 436 kts | 175° |
| 2026-05-06 11:41 | 50.16295 | 4.10609 | 22864 ft | 436 kts | 175° |
| 2026-05-06 11:41 | 50.13256 | 4.10668 | 22864 ft | 436 kts | 182° |
| 2026-05-06 11:41 | 50.10225 | 4.10435 | 22861 ft | 436 kts | 183° |
| 2026-05-06 11:42 | 50.07190 | 4.10206 | 22854 ft | 437 kts | 183° |
| 2026-05-06 11:42 | 50.04189 | 4.09986 | 22853 ft | 438 kts | 182° |
| 2026-05-06 11:42 | 50.01146 | 4.09766 | 22857 ft | 439 kts | 183° |
| 2026-05-06 11:42 | 49.98095 | 4.09543 | 22859 ft | 439 kts | 183° |
| 2026-05-06 11:43 | 49.95043 | 4.09317 | 22865 ft | 439 kts | 182° |
| 2026-05-06 11:43 | 49.91984 | 4.09093 | 22867 ft | 440 kts | 183° |
| 2026-05-06 11:43 | 49.88927 | 4.08867 | 22867 ft | 440 kts | 183° |
| 2026-05-06 11:44 | 49.82811 | 4.08416 | 22867 ft | 440 kts | 183° |
| 2026-05-06 11:44 | 49.79754 | 4.08189 | 22861 ft | 440 kts | 183° |
| 2026-05-06 11:44 | 49.76720 | 4.07964 | 22860 ft | 431 kts | 183° |
| 2026-05-06 11:44 | 49.73757 | 4.07746 | 21910 ft | 424 kts | 183° |
| 2026-05-06 11:45 | 49.70795 | 4.07529 | 20885 ft | 427 kts | 183° |
| 2026-05-06 11:45 | 49.67858 | 4.07318 | 20496 ft | 418 kts | 184° |
| 2026-05-06 11:45 | 49.64989 | 4.06917 | 20072 ft | 407 kts | 191° |
| 2026-05-06 11:45 | 49.62298 | 4.05766 | 19517 ft | 394 kts | 201° |
| 2026-05-06 11:46 | 49.59919 | 4.03873 | 18813 ft | 381 kts | 214° |
| 2026-05-06 11:46 | 49.57908 | 4.01402 | 18455 ft | 361 kts | 224° |
| 2026-05-06 11:46 | 49.56237 | 3.98509 | 17995 ft | 360 kts | 233° |
| 2026-05-06 11:46 | 49.54861 | 3.95297 | 17542 ft | 358 kts | 236° |
| 2026-05-06 11:47 | 49.53517 | 3.92092 | 17113 ft | 355 kts | 237° |
| 2026-05-06 11:47 | 49.52181 | 3.88918 | 16673 ft | 352 kts | 237° |
| 2026-05-06 11:47 | 49.50848 | 3.85766 | 16208 ft | 350 kts | 237° |
| 2026-05-06 11:47 | 49.49519 | 3.82634 | 15766 ft | 348 kts | 237° |
| 2026-05-06 11:48 | 49.48223 | 3.79498 | 15292 ft | 346 kts | 241° |
| 2026-05-06 11:48 | 49.47234 | 3.76149 | 14832 ft | 343 kts | 251° |
| 2026-05-06 11:48 | 49.46599 | 3.72620 | 14363 ft | 342 kts | 257° |
| 2026-05-06 11:48 | 49.46015 | 3.69083 | 13899 ft | 341 kts | 256° |
| 2026-05-06 11:49 | 49.45426 | 3.65581 | 13734 ft | 338 kts | 256° |
| 2026-05-06 11:49 | 49.44833 | 3.62077 | 13605 ft | 338 kts | 256° |
| 2026-05-06 11:49 | 49.44243 | 3.58607 | 13452 ft | 331 kts | 256° |
| 2026-05-06 11:49 | 49.43525 | 3.55319 | 13314 ft | 320 kts | 244° |
| 2026-05-06 11:50 | 49.42239 | 3.52588 | 13116 ft | 315 kts | 226° |
| 2026-05-06 11:50 | 49.40651 | 3.50318 | 12846 ft | 309 kts | 224° |
| 2026-05-06 11:50 | 49.39074 | 3.48102 | 12591 ft | 304 kts | 225° |
| 2026-05-06 11:50 | 49.37551 | 3.45968 | 12289 ft | 300 kts | 224° |
| 2026-05-06 11:51 | 49.36017 | 3.43818 | 11981 ft | 294 kts | 224° |
| 2026-05-06 11:51 | 49.34522 | 3.41726 | 11417 ft | 289 kts | 223° |
| 2026-05-06 11:51 | 49.33039 | 3.39653 | 10875 ft | 288 kts | 223° |
| 2026-05-06 11:51 | 49.31564 | 3.37594 | 10751 ft | 287 kts | 223° |
| 2026-05-06 11:52 | 49.30084 | 3.35527 | 10656 ft | 288 kts | 223° |
| 2026-05-06 11:52 | 49.28608 | 3.33460 | 10532 ft | 286 kts | 223° |
| 2026-05-06 11:52 | 49.27138 | 3.31405 | 10415 ft | 287 kts | 223° |
| 2026-05-06 11:52 | 49.25663 | 3.29348 | 10282 ft | 286 kts | 223° |
| 2026-05-06 11:53 | 49.24196 | 3.27304 | 10162 ft | 284 kts | 224° |
| 2026-05-06 11:53 | 49.22739 | 3.25275 | 10035 ft | 282 kts | 224° |
| 2026-05-06 11:53 | 49.21292 | 3.23263 | 9913 ft | 280 kts | 224° |
| 2026-05-06 11:53 | 49.19856 | 3.21267 | 9649 ft | 278 kts | 223° |
| 2026-05-06 11:54 | 49.18423 | 3.19277 | 9224 ft | 278 kts | 223° |
| 2026-05-06 11:54 | 49.16995 | 3.17295 | 8586 ft | 277 kts | 224° |
| 2026-05-06 11:54 | 49.15569 | 3.15314 | 7857 ft | 278 kts | 224° |
| 2026-05-06 11:54 | 49.14128 | 3.13313 | 7170 ft | 284 kts | 225° |
| 2026-05-06 11:55 | 49.12650 | 3.11261 | 6702 ft | 287 kts | 224° |
| 2026-05-06 11:55 | 49.11234 | 3.09305 | 6504 ft | 270 kts | 224° |
| 2026-05-06 11:55 | 49.09868 | 3.07422 | 6149 ft | 259 kts | 224° |
| 2026-05-06 11:55 | 49.08558 | 3.05620 | 5787 ft | 248 kts | 225° |
| 2026-05-06 11:56 | 49.07293 | 3.03885 | 5530 ft | 245 kts | 225° |
| 2026-05-06 11:56 | 49.06033 | 3.02152 | 5270 ft | 243 kts | 224° |
| 2026-05-06 11:56 | 49.04769 | 3.00409 | 4890 ft | 246 kts | 225° |
| 2026-05-06 11:56 | 49.03491 | 2.98645 | 4495 ft | 249 kts | 225° |
| 2026-05-06 11:57 | 49.02227 | 2.96860 | 4204 ft | 246 kts | 231° |
| 2026-05-06 11:57 | 49.01381 | 2.94661 | 3982 ft | 234 kts | 257° |
| 2026-05-06 11:57 | 49.01132 | 2.92321 | 3990 ft | 216 kts | 270° |
| 2026-05-06 11:57 | 49.01022 | 2.90096 | 3990 ft | 207 kts | 270° |
| 2026-05-06 11:58 | 49.00916 | 2.87925 | 3929 ft | 201 kts | 271° |
| 2026-05-06 11:58 | 49.00811 | 2.85841 | 3688 ft | 195 kts | 271° |
| 2026-05-06 11:58 | 49.00708 | 2.83814 | 3445 ft | 187 kts | 270° |
| 2026-05-06 11:58 | 49.00610 | 2.81904 | 3202 ft | 173 kts | 271° |
| 2026-05-06 11:59 | 49.00519 | 2.80127 | 2980 ft | 162 kts | 272° |
| 2026-05-06 11:59 | 49.00435 | 2.78502 | 2764 ft | 152 kts | 272° |
| 2026-05-06 11:59 | 49.00355 | 2.76922 | 2559 ft | 148 kts | 272° |
| 2026-05-06 11:59 | 49.00276 | 2.75377 | 2375 ft | 145 kts | 272° |
| 2026-05-06 12:00 | 49.00198 | 2.73844 | 2158 ft | 144 kts | 272° |
| 2026-05-06 12:00 | 49.00119 | 2.72322 | 1960 ft | 144 kts | 271° |
| 2026-05-06 12:00 | 49.00041 | 2.70808 | 1761 ft | 143 kts | 271° |
| 2026-05-06 12:00 | 48.99964 | 2.69290 | 1525 ft | 143 kts | 271° |
| 2026-05-06 12:01 | 48.99889 | 2.67777 | 1345 ft | 143 kts | 271° |
| 2026-05-06 12:01 | 48.99814 | 2.66275 | 1130 ft | 142 kts | 268° |
| 2026-05-06 12:01 | 48.99719 | 2.64779 | 937 ft | 143 kts | 271° |
| 2026-05-06 12:01 | 48.99650 | 2.63282 | 759 ft | 141 kts | 271° |
| 2026-05-06 12:02 | 48.99571 | 2.61790 | 589 ft | 141 kts | 268° |
| 2026-05-06 12:02 | 48.99490 | 2.60326 | 411 ft | 140 kts | 270° |
| 2026-05-06 12:02 | 48.99422 | 2.58934 | 352 ft | 113 kts | 264° |
| 2026-05-06 12:02 | 48.99369 | 2.57996 | 352 ft | 65 kts | 265° |
| 2026-05-06 12:03 | 48.99349 | 2.57539 | 352 ft | 34 kts | 273° |
| 2026-05-06 12:03 | 48.99398 | 2.57221 | 361 ft | 23 kts | 285° |
| 2026-05-06 12:03 | 48.99429 | 2.57050 | 360 ft | 16 kts | 287° |
| 2026-05-06 12:03 | 48.99461 | 2.56888 | 357 ft | 15 kts | 286° |
| 2026-05-06 12:04 | 48.99475 | 2.56764 | 354 ft | 10 kts | 268° |
| 2026-05-06 12:04 | 48.99480 | 2.56676 | 358 ft | 7 kts | 306° |
| 2026-05-06 12:04 | 48.99507 | 2.56646 | 359 ft | 8 kts | 341° |
| 2026-05-06 12:04 | 48.99564 | 2.56629 | 355 ft | 9 kts | 0° |
| 2026-05-06 12:05 | 48.99665 | 2.56620 | 358 ft | 13 kts | 355° |
| 2026-05-06 12:05 | 48.99768 | 2.56607 | 358 ft | 16 kts | 355° |
| 2026-05-06 12:05 | 48.99884 | 2.56582 | 358 ft | 17 kts | 334° |
| 2026-05-06 12:05 | 48.99911 | 2.56416 | 360 ft | 17 kts | 265° |
| 2026-05-06 12:06 | 48.99904 | 2.56288 | 354 ft | 18 kts | 266° |
| 2026-05-06 12:06 | 48.99893 | 2.56093 | 354 ft | 19 kts | 263° |
| 2026-05-06 12:06 | 48.99897 | 2.55902 | 354 ft | 17 kts | 283° |
| 2026-05-06 12:06 | 48.99919 | 2.55777 | 360 ft | 13 kts | 287° |
| 2026-05-06 12:07 | 48.99983 | 2.55673 | 354 ft | 15 kts | 344° |
| 2026-05-06 12:07 | 49.00090 | 2.55629 | 358 ft | 17 kts | 343° |
| 2026-05-06 12:07 | 49.00209 | 2.55576 | 360 ft | 18 kts | 343° |
| 2026-05-06 12:07 | 49.00333 | 2.55521 | 355 ft | 19 kts | 346° |
| 2026-05-06 12:08 | 49.00461 | 2.55465 | 354 ft | 19 kts | 345° |
| 2026-05-06 12:08 | 49.00592 | 2.55409 | 364 ft | 20 kts | 342° |
| 2026-05-06 12:08 | 49.00696 | 2.55381 | 354 ft | 12 kts | 24° |
| 2026-05-06 12:08 | 49.00731 | 2.55499 | 354 ft | 14 kts | 83° |
| 2026-05-06 12:09 | 49.00743 | 2.55655 | 354 ft | 16 kts | 82° |
| 2026-05-06 12:09 | 49.00759 | 2.55835 | 354 ft | 18 kts | 81° |
| 2026-05-06 12:09 | 49.00776 | 2.56034 | 354 ft | 20 kts | 81° |
| 2026-05-06 12:09 | 49.00796 | 2.56247 | 361 ft | 21 kts | 82° |
| 2026-05-06 12:10 | 49.00820 | 2.56475 | 356 ft | 22 kts | 83° |
| 2026-05-06 12:10 | 49.00833 | 2.56719 | 354 ft | 24 kts | 86° |
| 2026-05-06 12:10 | 49.00847 | 2.56975 | 354 ft | 25 kts | 86° |
| 2026-05-06 12:10 | 49.00861 | 2.57242 | 354 ft | 26 kts | 85° |
| 2026-05-06 12:11 | 49.00872 | 2.57430 | 354 ft | 18 kts | 83° |
| 2026-05-06 12:11 | 49.00881 | 2.57609 | 361 ft | 14 kts | 85° |
| 2026-05-06 12:11 | 49.00867 | 2.57715 | 359 ft | 8 kts | 137° |
| 2026-05-06 12:11 | 49.00809 | 2.57731 | 354 ft | 9 kts | 188° |
| 2026-05-06 12:12 | 49.00765 | 2.57687 | 359 ft | 6 kts | 217° |
| 2026-05-06 12:12 | 49.00738 | 2.57689 | 358 ft | 4 kts | 130° |
| 2026-05-06 12:12 | 49.00719 | 2.57734 | 364 ft | 6 kts | 124° |
| 2026-05-06 12:12 | 49.00707 | 2.57761 | 357 ft | 3 kts | 125° |
| 2026-05-06 12:13 | 49.00702 | 2.57770 | 358 ft | 0 kts | 125° |